createdAt,value
2018-07-04T00:02:10.975Z,25.94
2018-07-04T00:07:32.464Z,25.92
2018-07-04T00:12:53.801Z,25.88
2018-07-04T00:18:15.346Z,25.87
2018-07-04T00:23:36.646Z,25.87
2018-07-04T00:28:58.089Z,25.82
2018-07-04T00:34:19.525Z,25.80
2018-07-04T00:39:40.974Z,25.78
2018-07-04T00:45:02.602Z,25.76
2018-07-04T00:50:25.509Z,25.75
2018-07-04T00:55:47.025Z,25.72
2018-07-04T01:01:08.581Z,25.70
2018-07-04T01:06:30.021Z,25.69
2018-07-04T01:11:51.660Z,25.66
2018-07-04T01:17:13.117Z,25.64
2018-07-04T01:22:34.513Z,25.62
2018-07-04T01:27:56.101Z,25.61
2018-07-04T01:33:17.354Z,25.58
2018-07-04T01:38:38.914Z,25.56
2018-07-04T01:44:00.374Z,25.55
2018-07-04T01:49:21.886Z,25.54
2018-07-04T01:54:43.406Z,25.50
2018-07-04T02:00:04.813Z,25.48
2018-07-04T02:05:25.982Z,25.48
2018-07-04T02:10:41.489Z,25.47
2018-07-04T02:16:03.017Z,25.46
2018-07-04T02:21:24.522Z,25.44
2018-07-04T02:26:46.198Z,25.42
2018-07-04T02:32:08.155Z,25.41
2018-07-04T02:37:29.513Z,25.39
2018-07-04T02:42:51.044Z,25.38
2018-07-04T02:48:12.481Z,25.35
2018-07-04T02:53:34.118Z,25.33
2018-07-04T02:58:55.553Z,25.31
2018-07-04T03:04:16.773Z,25.28
2018-07-04T03:09:38.594Z,25.28
2018-07-04T03:14:59.970Z,25.25
2018-07-04T03:20:21.307Z,25.23
2018-07-04T03:25:42.730Z,25.22
2018-07-04T03:31:04.370Z,25.20
2018-07-04T03:36:25.786Z,25.20
2018-07-04T03:41:41.180Z,25.17
2018-07-04T03:46:56.760Z,25.18
2018-07-04T03:52:18.309Z,25.18
2018-07-04T03:57:34.036Z,25.19
2018-07-04T04:02:55.535Z,25.09
2018-07-04T04:08:16.993Z,25.10
2018-07-04T04:13:38.498Z,24.94
2018-07-04T04:18:59.984Z,24.84
2018-07-04T04:24:21.283Z,24.85
2018-07-04T04:29:42.565Z,24.79
2018-07-04T04:35:04.100Z,24.81
2018-07-04T04:40:25.518Z,24.76
2018-07-04T04:45:46.858Z,24.80
2018-07-04T04:51:08.272Z,24.82
2018-07-04T04:56:29.823Z,24.86
2018-07-04T05:01:51.255Z,24.89
2018-07-04T05:07:12.633Z,24.93
2018-07-04T05:12:34.057Z,24.90
2018-07-04T05:17:55.673Z,24.93
2018-07-04T05:23:17.011Z,24.93
2018-07-04T05:28:38.539Z,24.98
2018-07-04T05:33:59.872Z,25.01
2018-07-04T05:39:21.381Z,25.02
2018-07-04T05:44:42.938Z,25.06
2018-07-04T05:50:04.338Z,25.10
2018-07-04T05:55:25.614Z,25.11
2018-07-04T06:00:46.958Z,25.17
2018-07-04T06:06:08.271Z,25.20
2018-07-04T06:11:29.796Z,25.27
2018-07-04T06:16:51.286Z,25.27
2018-07-04T06:22:12.697Z,25.26
2018-07-04T06:27:34.122Z,25.25
2018-07-04T06:32:55.453Z,25.34
2018-07-04T06:37:58.584Z,25.47
2018-07-04T06:43:01.455Z,25.48
2018-07-04T06:48:04.576Z,25.59
2018-07-04T06:53:07.724Z,25.56
2018-07-04T06:58:10.626Z,25.60
2018-07-04T07:03:32.357Z,25.67
2018-07-04T07:08:53.693Z,25.70
2018-07-04T07:14:15.140Z,25.78
2018-07-04T07:19:36.770Z,25.82
2018-07-04T07:24:58.421Z,25.82
2018-07-04T07:30:20.155Z,25.84
2018-07-04T07:35:41.485Z,25.84
2018-07-04T07:41:02.856Z,25.84
2018-07-04T07:46:24.282Z,25.91
2018-07-04T07:51:45.777Z,25.88
2018-07-04T07:57:07.146Z,25.92
2018-07-04T08:02:28.697Z,25.91
2018-07-04T08:07:50.110Z,26.02
2018-07-04T08:13:11.549Z,26.01
2018-07-04T08:18:32.981Z,25.99
2018-07-04T08:23:54.410Z,25.94
2018-07-04T08:29:15.792Z,25.95
2018-07-04T08:34:37.330Z,26.05
2018-07-04T08:39:58.873Z,26.03
2018-07-04T08:45:20.258Z,26.02
2018-07-04T08:50:41.826Z,25.98
2018-07-04T08:55:57.649Z,26.01
2018-07-04T09:01:19.045Z,26.01
2018-07-04T09:06:40.598Z,26.01
2018-07-04T09:12:01.987Z,26.00
2018-07-04T09:17:23.563Z,26.01
2018-07-04T09:22:39.137Z,26.01
2018-07-04T09:28:00.420Z,26.02
2018-07-04T09:33:21.910Z,26.02
2018-07-04T09:38:43.297Z,26.02
2018-07-04T09:44:05.017Z,26.02
2018-07-04T09:49:20.676Z,26.05
2018-07-04T09:54:42.158Z,26.05
2018-07-04T10:00:03.755Z,26.06
2018-07-04T10:05:25.389Z,26.07
2018-07-04T10:10:46.781Z,26.08
2018-07-04T10:16:08.452Z,26.11
2018-07-04T10:21:29.938Z,26.11
2018-07-04T10:26:51.506Z,26.11
2018-07-04T10:32:12.826Z,26.12
2018-07-04T10:37:28.338Z,26.13
2018-07-04T10:42:49.678Z,26.12
2018-07-04T10:48:11.006Z,26.11
2018-07-04T10:53:32.731Z,26.12
2018-07-04T10:58:54.252Z,26.11
2018-07-04T11:04:15.566Z,26.10
2018-07-04T11:09:36.950Z,26.11
2018-07-04T11:14:59.273Z,26.11
2018-07-04T11:20:20.597Z,26.10
2018-07-04T11:25:42.223Z,26.12
2018-07-04T11:31:03.837Z,26.12
2018-07-04T11:36:25.314Z,26.10
2018-07-04T11:41:46.863Z,26.12
2018-07-04T11:46:49.785Z,26.12
2018-07-04T11:51:52.965Z,26.10
2018-07-04T11:56:55.885Z,26.14
2018-07-04T12:01:58.871Z,26.14
2018-07-04T12:07:11.846Z,26.14
2018-07-04T12:12:14.781Z,26.19
2018-07-04T12:17:17.717Z,26.20
2018-07-04T12:22:20.673Z,26.20
2018-07-04T12:27:23.700Z,26.24
2018-07-04T12:32:26.641Z,26.24
2018-07-04T12:37:29.536Z,26.25
2018-07-04T12:42:32.440Z,26.27
2018-07-04T12:47:35.434Z,26.27
2018-07-04T12:52:38.507Z,26.28
2018-07-04T12:58:00.030Z,26.32
2018-07-04T13:03:22.006Z,26.33
2018-07-04T13:08:37.540Z,26.31
2018-07-04T13:13:58.941Z,26.34
2018-07-04T13:19:20.618Z,26.36
2018-07-04T13:24:42.175Z,26.37
2018-07-04T13:30:03.660Z,26.38
2018-07-04T13:35:25.732Z,26.40
2018-07-04T13:40:47.164Z,26.42
2018-07-04T13:46:08.605Z,26.41
2018-07-04T13:51:30.169Z,26.43
2018-07-04T13:56:51.718Z,26.45
2018-07-04T14:02:13.211Z,26.46
2018-07-04T14:07:28.704Z,26.47
2018-07-04T14:12:50.355Z,26.46
2018-07-04T14:18:11.862Z,26.47
2018-07-04T14:23:33.502Z,26.54
2018-07-04T14:28:54.867Z,26.66
2018-07-04T14:34:16.687Z,26.71
2018-07-04T14:39:32.038Z,26.79
2018-07-04T14:44:53.415Z,26.76
2018-07-04T14:50:09.443Z,26.81
2018-07-04T14:55:31.084Z,26.91
2018-07-04T15:00:52.473Z,26.82
2018-07-04T15:06:14.128Z,26.81
2018-07-04T15:11:35.628Z,26.96
2018-07-04T15:16:57.073Z,27.04
2018-07-04T15:22:18.454Z,26.99
2018-07-04T15:27:39.934Z,27.03
2018-07-04T15:33:01.463Z,27.15
2018-07-04T15:38:22.854Z,27.13
2018-07-04T15:43:38.462Z,28.05
2018-07-04T15:48:59.806Z,27.06
2018-07-04T15:54:21.348Z,27.32
2018-07-04T15:59:42.788Z,27.13
2018-07-04T16:05:04.378Z,27.08
2018-07-04T16:10:25.641Z,27.11
2018-07-04T16:15:47.013Z,27.13
2018-07-04T16:21:08.522Z,27.16
2018-07-04T16:26:30.009Z,27.18
2018-07-04T16:31:51.604Z,27.14
2018-07-04T16:37:13.194Z,27.14
2018-07-04T16:42:34.650Z,27.13
2018-07-04T16:47:56.097Z,27.17
2018-07-04T16:53:11.552Z,27.17
2018-07-04T16:58:32.974Z,27.18
2018-07-04T17:03:54.466Z,27.18
2018-07-04T17:09:16.439Z,27.17
2018-07-04T17:14:37.814Z,27.15
2018-07-04T17:19:59.432Z,27.12
2018-07-04T17:25:20.998Z,27.11
2018-07-04T17:30:42.300Z,27.11
2018-07-04T17:36:03.696Z,27.10
2018-07-04T17:41:25.417Z,27.09
2018-07-04T17:46:46.874Z,27.09
2018-07-04T17:52:08.429Z,27.14
2018-07-04T17:57:30.261Z,27.21
2018-07-04T18:02:51.750Z,27.24
2018-07-04T18:08:13.409Z,27.21
2018-07-04T18:13:34.799Z,27.25
2018-07-04T18:18:57.726Z,27.29
2018-07-04T18:24:19.720Z,27.35
2018-07-04T18:29:41.128Z,27.38
2018-07-04T18:35:02.692Z,27.41
2018-07-04T18:40:25.336Z,27.40
2018-07-04T18:45:46.990Z,27.41
2018-07-04T18:51:08.499Z,27.45
2018-07-04T18:56:30.130Z,27.45
2018-07-04T19:01:46.976Z,27.42
2018-07-04T19:07:08.497Z,27.42
2018-07-04T19:12:30.093Z,27.41
2018-07-04T19:17:51.437Z,27.42
2018-07-04T19:23:13.113Z,27.39
2018-07-04T19:28:34.868Z,27.38
2018-07-04T19:33:56.550Z,27.36
2018-07-04T19:39:18.350Z,27.35
2018-07-04T19:44:39.798Z,27.34
2018-07-04T19:50:01.220Z,27.33
2018-07-04T19:55:22.634Z,27.38
2018-07-04T20:00:44.846Z,27.40
2018-07-04T20:06:06.270Z,27.39
2018-07-04T20:11:27.717Z,27.39
2018-07-04T20:16:49.334Z,27.40
2018-07-04T20:22:11.605Z,27.40
2018-07-04T20:27:33.097Z,27.41
2018-07-04T20:32:54.582Z,27.43
2018-07-04T20:38:15.929Z,27.40
2018-07-04T20:43:37.748Z,27.41
2018-07-04T20:48:59.419Z,27.44
2018-07-04T20:54:21.288Z,27.44
2018-07-04T20:59:36.800Z,27.43
2018-07-04T21:04:58.521Z,27.42
2018-07-04T21:10:19.883Z,27.37
2018-07-04T21:15:41.218Z,27.36
2018-07-04T21:21:02.773Z,27.34
2018-07-04T21:26:24.213Z,27.32
2018-07-04T21:31:45.800Z,27.30
2018-07-04T21:37:07.201Z,27.27
2018-07-04T21:42:28.527Z,27.26
2018-07-04T21:47:50.067Z,27.23
2018-07-04T21:53:11.542Z,27.21
2018-07-04T21:58:33.113Z,27.18
2018-07-04T22:03:54.594Z,27.15
2018-07-04T22:09:15.985Z,27.14
2018-07-04T22:14:37.471Z,27.11
2018-07-04T22:19:58.996Z,27.09
2018-07-04T22:25:20.277Z,27.06
2018-07-04T22:30:41.813Z,27.04
2018-07-04T22:35:57.304Z,27.02
2018-07-04T22:41:18.806Z,26.99
2018-07-04T22:46:40.170Z,26.97
2018-07-04T22:52:01.494Z,26.96
2018-07-04T22:57:23.052Z,26.93
2018-07-04T23:02:44.505Z,26.90
2018-07-04T23:08:05.993Z,26.89
2018-07-04T23:13:27.432Z,26.86
2018-07-04T23:18:48.944Z,26.83
2018-07-04T23:24:10.202Z,26.83
2018-07-04T23:29:31.818Z,26.81
2018-07-04T23:34:53.247Z,26.79
2018-07-04T23:40:14.645Z,26.78
2018-07-04T23:45:36.018Z,26.76
2018-07-04T23:50:57.373Z,26.75
2018-07-04T23:56:18.954Z,26.73
